sensor_id;sensor_type;location;lat;lon;timestamp;pressure;altitude;pressure_sealevel;temperature;humidity
32456;BME280;18912;43.270;27.942;2023-05-09T00:01:04;98641.88;;;17.37;60.64
32456;BME280;18912;43.270;27.942;2023-05-09T00:03:30;98628.06;;;17.44;60.38
32456;BME280;18912;43.270;27.942;2023-05-09T00:05:57;98632.50;;;17.56;59.97
32456;BME280;18912;43.270;27.942;2023-05-09T00:08:22;98624.28;;;17.45;59.90
32456;BME280;18912;43.270;27.942;2023-05-09T00:10:47;98618.94;;;17.50;59.72
32456;BME280;18912;43.270;27.942;2023-05-09T00:13:13;98621.31;;;17.35;60.39
32456;BME280;18912;43.270;27.942;2023-05-09T00:15:38;98620.34;;;17.41;60.33
32456;BME280;18912;43.270;27.942;2023-05-09T00:18:03;98612.16;;;17.41;60.53
32456;BME280;18912;43.270;27.942;2023-05-09T00:20:29;98619.50;;;17.29;60.64
32456;BME280;18912;43.270;27.942;2023-05-09T00:22:54;98618.31;;;17.36;60.35
32456;BME280;18912;43.270;27.942;2023-05-09T00:25:20;98611.81;;;17.37;60.00
32456;BME280;18912;43.270;27.942;2023-05-09T00:27:45;98619.53;;;17.52;59.80
32456;BME280;18912;43.270;27.942;2023-05-09T00:30:10;98625.31;;;17.44;59.73
32456;BME280;18912;43.270;27.942;2023-05-09T00:32:36;98631.28;;;17.29;60.03
32456;BME280;18912;43.270;27.942;2023-05-09T00:35:01;98632.00;;;17.13;60.54
32456;BME280;18912;43.270;27.942;2023-05-09T00:37:28;98637.44;;;17.02;61.35
32456;BME280;18912;43.270;27.942;2023-05-09T00:39:54;98638.38;;;16.96;61.64
32456;BME280;18912;43.270;27.942;2023-05-09T00:42:20;98628.06;;;16.98;61.92
32456;BME280;18912;43.270;27.942;2023-05-09T00:44:45;98640.41;;;16.89;62.35
32456;BME280;18912;43.270;27.942;2023-05-09T00:47:10;98642.44;;;17.16;61.69
32456;BME280;18912;43.270;27.942;2023-05-09T00:49:35;98630.31;;;17.12;61.76
32456;BME280;18912;43.270;27.942;2023-05-09T00:52:02;98633.97;;;16.95;62.40
32456;BME280;18912;43.270;27.942;2023-05-09T00:54:28;98631.38;;;16.88;62.48
32456;BME280;18912;43.270;27.942;2023-05-09T00:56:54;98628.88;;;16.87;62.37
32456;BME280;18912;43.270;27.942;2023-05-09T00:59:19;98633.09;;;16.59;63.14
32456;BME280;18912;43.270;27.942;2023-05-09T01:01:46;98635.59;;;16.72;62.20
32456;BME280;18912;43.270;27.942;2023-05-09T01:04:11;98644.31;;;16.51;62.02
32456;BME280;18912;43.270;27.942;2023-05-09T01:06:47;98654.59;;;16.67;61.80
32456;BME280;18912;43.270;27.942;2023-05-09T01:11:50;98656.09;;;16.52;61.54
32456;BME280;18912;43.270;27.942;2023-05-09T01:16:46;98648.75;;;16.34;61.09
32456;BME280;18912;43.270;27.942;2023-05-09T01:21:58;98647.81;;;16.40;60.64
32456;BME280;18912;43.270;27.942;2023-05-09T01:29:43;98652.00;;;16.72;59.84
32456;BME280;18912;43.270;27.942;2023-05-09T01:32:21;98658.16;;;16.79;59.13
32456;BME280;18912;43.270;27.942;2023-05-09T01:34:48;98655.03;;;16.64;59.51
32456;BME280;18912;43.270;27.942;2023-05-09T01:37:15;98664.38;;;16.87;59.37
32456;BME280;18912;43.270;27.942;2023-05-09T01:39:47;98659.28;;;16.90;59.35
32456;BME280;18912;43.270;27.942;2023-05-09T01:42:14;98649.31;;;16.96;59.18
32456;BME280;18912;43.270;27.942;2023-05-09T01:44:41;98661.25;;;16.71;59.48
32456;BME280;18912;43.270;27.942;2023-05-09T01:47:07;98656.47;;;16.37;60.54
32456;BME280;18912;43.270;27.942;2023-05-09T01:49:36;98652.19;;;16.59;60.16
32456;BME280;18912;43.270;27.942;2023-05-09T01:52:20;98648.84;;;16.57;60.34
32456;BME280;18912;43.270;27.942;2023-05-09T01:54:47;98644.38;;;16.63;60.08
32456;BME280;18912;43.270;27.942;2023-05-09T01:57:14;98637.97;;;16.69;59.91
32456;BME280;18912;43.270;27.942;2023-05-09T01:59:41;98643.47;;;16.51;60.69
32456;BME280;18912;43.270;27.942;2023-05-09T02:02:08;98638.22;;;16.67;59.98
32456;BME280;18912;43.270;27.942;2023-05-09T02:04:34;98640.22;;;16.72;59.92
32456;BME280;18912;43.270;27.942;2023-05-09T02:07:00;98634.19;;;16.81;59.48
32456;BME280;18912;43.270;27.942;2023-05-09T02:09:25;98643.47;;;16.80;59.74
32456;BME280;18912;43.270;27.942;2023-05-09T02:11:51;98638.00;;;16.80;59.68
32456;BME280;18912;43.270;27.942;2023-05-09T02:14:16;98645.13;;;16.81;59.71
32456;BME280;18912;43.270;27.942;2023-05-09T02:16:41;98632.84;;;16.61;60.18
32456;BME280;18912;43.270;27.942;2023-05-09T02:19:07;98642.56;;;16.57;60.59
32456;BME280;18912;43.270;27.942;2023-05-09T02:21:32;98644.13;;;16.64;60.40
32456;BME280;18912;43.270;27.942;2023-05-09T02:23:58;98641.75;;;16.68;60.42
32456;BME280;18912;43.270;27.942;2023-05-09T02:26:24;98652.63;;;16.56;61.17
32456;BME280;18912;43.270;27.942;2023-05-09T02:28:50;98647.75;;;16.47;61.09
32456;BME280;18912;43.270;27.942;2023-05-09T02:31:16;98652.66;;;16.38;61.55
32456;BME280;18912;43.270;27.942;2023-05-09T02:33:43;98655.53;;;16.14;62.68
32456;BME280;18912;43.270;27.942;2023-05-09T02:36:09;98653.56;;;16.03;63.34
32456;BME280;18912;43.270;27.942;2023-05-09T02:38:34;98654.88;;;15.82;64.32
32456;BME280;18912;43.270;27.942;2023-05-09T02:41:00;98653.03;;;15.94;63.77
32456;BME280;18912;43.270;27.942;2023-05-09T02:43:25;98656.53;;;16.01;64.35
32456;BME280;18912;43.270;27.942;2023-05-09T02:45:50;98655.41;;;15.72;64.98
32456;BME280;18912;43.270;27.942;2023-05-09T02:48:16;98647.75;;;15.99;64.16
32456;BME280;18912;43.270;27.942;2023-05-09T02:50:41;98656.66;;;15.88;64.37
32456;BME280;18912;43.270;27.942;2023-05-09T02:53:10;98650.13;;;16.07;63.90
32456;BME280;18912;43.270;27.942;2023-05-09T02:55:35;98654.56;;;15.72;64.89
32456;BME280;18912;43.270;27.942;2023-05-09T02:58:00;98647.88;;;16.04;64.11
32456;BME280;18912;43.270;27.942;2023-05-09T03:00:26;98649.34;;;16.07;63.83
32456;BME280;18912;43.270;27.942;2023-05-09T03:02:51;98648.06;;;15.91;64.21
32456;BME280;18912;43.270;27.942;2023-05-09T03:05:17;98644.25;;;15.56;65.69
32456;BME280;18912;43.270;27.942;2023-05-09T03:07:43;98653.00;;;15.40;66.74
32456;BME280;18912;43.270;27.942;2023-05-09T03:10:08;98638.00;;;15.55;65.85
32456;BME280;18912;43.270;27.942;2023-05-09T03:12:36;98657.75;;;15.69;65.65
32456;BME280;18912;43.270;27.942;2023-05-09T03:15:02;98662.28;;;15.57;65.59
32456;BME280;18912;43.270;27.942;2023-05-09T03:17:28;98661.66;;;15.73;65.50
32456;BME280;18912;43.270;27.942;2023-05-09T03:19:53;98661.06;;;15.89;64.44
32456;BME280;18912;43.270;27.942;2023-05-09T03:22:18;98667.13;;;15.73;64.59
32456;BME280;18912;43.270;27.942;2023-05-09T03:24:44;98662.28;;;15.75;64.59
32456;BME280;18912;43.270;27.942;2023-05-09T03:27:09;98675.16;;;15.68;64.98
32456;BME280;18912;43.270;27.942;2023-05-09T03:29:34;98669.16;;;16.14;63.34
32456;BME280;18912;43.270;27.942;2023-05-09T03:32:00;98673.34;;;16.16;63.01
32456;BME280;18912;43.270;27.942;2023-05-09T03:34:25;98674.25;;;16.10;63.22
32456;BME280;18912;43.270;27.942;2023-05-09T03:36:50;98679.84;;;16.15;63.37
32456;BME280;18912;43.270;27.942;2023-05-09T03:39:15;98678.41;;;15.95;64.16
32456;BME280;18912;43.270;27.942;2023-05-09T03:41:41;98692.88;;;16.13;63.77
32456;BME280;18912;43.270;27.942;2023-05-09T03:44:08;98686.28;;;16.03;64.62
32456;BME280;18912;43.270;27.942;2023-05-09T03:46:33;98686.13;;;16.16;64.06
32456;BME280;18912;43.270;27.942;2023-05-09T03:48:58;98689.22;;;16.19;63.98
32456;BME280;18912;43.270;27.942;2023-05-09T03:51:24;98686.50;;;16.37;63.87
32456;BME280;18912;43.270;27.942;2023-05-09T03:53:49;98684.25;;;16.46;63.28
32456;BME280;18912;43.270;27.942;2023-05-09T03:56:15;98695.34;;;16.15;64.82
32456;BME280;18912;43.270;27.942;2023-05-09T03:58:40;98696.75;;;16.24;64.76
32456;BME280;18912;43.270;27.942;2023-05-09T04:01:05;98696.06;;;16.10;65.17
32456;BME280;18912;43.270;27.942;2023-05-09T04:03:31;98694.91;;;16.00;66.08
32456;BME280;18912;43.270;27.942;2023-05-09T04:05:56;98701.69;;;15.97;66.06
32456;BME280;18912;43.270;27.942;2023-05-09T04:08:22;98709.16;;;15.83;67.23
32456;BME280;18912;43.270;27.942;2023-05-09T04:10:48;98704.66;;;16.43;65.16
32456;BME280;18912;43.270;27.942;2023-05-09T04:13:13;98700.47;;;16.59;64.68
32456;BME280;18912;43.270;27.942;2023-05-09T04:15:39;98703.78;;;16.13;65.92
32456;BME280;18912;43.270;27.942;2023-05-09T04:18:04;98703.13;;;16.47;65.20
32456;BME280;18912;43.270;27.942;2023-05-09T04:20:29;98702.38;;;16.11;66.03
32456;BME280;18912;43.270;27.942;2023-05-09T04:22:55;98704.47;;;16.09;66.20
32456;BME280;18912;43.270;27.942;2023-05-09T04:25:20;98715.31;;;15.97;67.10
32456;BME280;18912;43.270;27.942;2023-05-09T04:27:46;98716.00;;;16.11;66.75
32456;BME280;18912;43.270;27.942;2023-05-09T04:30:11;98715.28;;;16.15;65.77
32456;BME280;18912;43.270;27.942;2023-05-09T04:32:37;98708.03;;;16.27;66.21
32456;BME280;18912;43.270;27.942;2023-05-09T04:35:03;98716.50;;;16.55;65.43
32456;BME280;18912;43.270;27.942;2023-05-09T04:37:28;98713.13;;;16.71;64.90
32456;BME280;18912;43.270;27.942;2023-05-09T04:39:55;98721.41;;;16.65;64.89
32456;BME280;18912;43.270;27.942;2023-05-09T04:42:20;98726.78;;;16.71;64.59
32456;BME280;18912;43.270;27.942;2023-05-09T04:44:46;98729.22;;;16.61;65.68
32456;BME280;18912;43.270;27.942;2023-05-09T04:47:11;98733.19;;;16.77;65.03
32456;BME280;18912;43.270;27.942;2023-05-09T04:49:36;98743.34;;;16.88;64.45
32456;BME280;18912;43.270;27.942;2023-05-09T04:52:02;98736.56;;;16.91;64.56
32456;BME280;18912;43.270;27.942;2023-05-09T04:54:27;98733.03;;;17.02;64.04
32456;BME280;18912;43.270;27.942;2023-05-09T04:56:53;98732.81;;;16.73;65.34
32456;BME280;18912;43.270;27.942;2023-05-09T04:59:18;98735.78;;;17.02;63.74
32456;BME280;18912;43.270;27.942;2023-05-09T05:01:43;98733.81;;;16.91;64.10
32456;BME280;18912;43.270;27.942;2023-05-09T05:04:09;98738.31;;;16.85;64.05
32456;BME280;18912;43.270;27.942;2023-05-09T05:06:34;98743.88;;;17.20;62.93
32456;BME280;18912;43.270;27.942;2023-05-09T05:08:59;98744.81;;;17.14;63.06
32456;BME280;18912;43.270;27.942;2023-05-09T05:11:25;98755.25;;;17.58;62.24
32456;BME280;18912;43.270;27.942;2023-05-09T05:13:50;98745.97;;;17.59;61.35
32456;BME280;18912;43.270;27.942;2023-05-09T05:16:15;98753.72;;;17.73;61.47
32456;BME280;18912;43.270;27.942;2023-05-09T05:18:41;98752.91;;;17.73;61.55
32456;BME280;18912;43.270;27.942;2023-05-09T05:21:06;98749.03;;;17.39;61.94
32456;BME280;18912;43.270;27.942;2023-05-09T05:23:32;98733.88;;;17.55;61.51
32456;BME280;18912;43.270;27.942;2023-05-09T05:25:57;98744.81;;;17.55;61.63
32456;BME280;18912;43.270;27.942;2023-05-09T05:28:23;98744.34;;;18.04;60.94
32456;BME280;18912;43.270;27.942;2023-05-09T05:30:48;98748.91;;;18.38;60.51
32456;BME280;18912;43.270;27.942;2023-05-09T05:33:13;98744.84;;;18.81;59.29
32456;BME280;18912;43.270;27.942;2023-05-09T05:35:38;98741.47;;;18.62;59.46
32456;BME280;18912;43.270;27.942;2023-05-09T05:38:04;98750.81;;;18.49;59.00
32456;BME280;18912;43.270;27.942;2023-05-09T05:40:29;98745.00;;;18.74;58.18
32456;BME280;18912;43.270;27.942;2023-05-09T05:42:55;98748.47;;;18.70;57.81
32456;BME280;18912;43.270;27.942;2023-05-09T05:45:20;98756.50;;;18.59;58.48
32456;BME280;18912;43.270;27.942;2023-05-09T05:47:45;98755.88;;;18.69;57.54
32456;BME280;18912;43.270;27.942;2023-05-09T05:50:11;98751.06;;;19.04;57.05
32456;BME280;18912;43.270;27.942;2023-05-09T05:52:37;98752.75;;;18.65;57.48
32456;BME280;18912;43.270;27.942;2023-05-09T05:55:02;98759.31;;;18.13;59.10
32456;BME280;18912;43.270;27.942;2023-05-09T05:57:28;98749.44;;;18.63;57.53
32456;BME280;18912;43.270;27.942;2023-05-09T05:59:53;98753.88;;;18.41;58.20
32456;BME280;18912;43.270;27.942;2023-05-09T06:02:19;98757.84;;;18.34;58.30
32456;BME280;18912;43.270;27.942;2023-05-09T06:04:44;98761.41;;;18.34;58.20
32456;BME280;18912;43.270;27.942;2023-05-09T06:07:09;98753.66;;;18.54;57.69
32456;BME280;18912;43.270;27.942;2023-05-09T06:09:35;98764.91;;;18.70;57.73
32456;BME280;18912;43.270;27.942;2023-05-09T06:12:01;98764.22;;;18.62;57.11
32456;BME280;18912;43.270;27.942;2023-05-09T06:14:26;98760.59;;;18.74;56.70
32456;BME280;18912;43.270;27.942;2023-05-09T06:16:52;98757.25;;;18.43;56.98
32456;BME280;18912;43.270;27.942;2023-05-09T06:19:17;98759.25;;;18.36;58.13
32456;BME280;18912;43.270;27.942;2023-05-09T06:21:43;98764.00;;;18.29;58.50
32456;BME280;18912;43.270;27.942;2023-05-09T06:24:08;98772.34;;;18.34;58.01
32456;BME280;18912;43.270;27.942;2023-05-09T06:26:33;98761.69;;;17.98;58.95
32456;BME280;18912;43.270;27.942;2023-05-09T06:28:59;98768.69;;;18.17;58.79
32456;BME280;18912;43.270;27.942;2023-05-09T06:31:24;98764.25;;;18.39;57.68
32456;BME280;18912;43.270;27.942;2023-05-09T06:33:50;98767.59;;;18.30;58.51
32456;BME280;18912;43.270;27.942;2023-05-09T06:36:15;98772.50;;;18.16;58.86
32456;BME280;18912;43.270;27.942;2023-05-09T06:38:40;98765.63;;;18.14;58.41
32456;BME280;18912;43.270;27.942;2023-05-09T06:41:06;98774.75;;;18.42;57.79
32456;BME280;18912;43.270;27.942;2023-05-09T06:43:31;98775.16;;;18.62;58.03
32456;BME280;18912;43.270;27.942;2023-05-09T06:45:56;98773.63;;;18.95;57.13
32456;BME280;18912;43.270;27.942;2023-05-09T06:48:22;98767.69;;;19.14;55.53
32456;BME280;18912;43.270;27.942;2023-05-09T06:50:50;98769.28;;;19.27;55.34
32456;BME280;18912;43.270;27.942;2023-05-09T06:53:16;98762.31;;;18.91;55.47
32456;BME280;18912;43.270;27.942;2023-05-09T06:55:41;98766.94;;;19.19;54.69
32456;BME280;18912;43.270;27.942;2023-05-09T06:58:06;98769.44;;;19.65;53.94
32456;BME280;18912;43.270;27.942;2023-05-09T07:00:32;98767.16;;;19.45;54.53
32456;BME280;18912;43.270;27.942;2023-05-09T07:02:57;98769.38;;;19.60;54.07
32456;BME280;18912;43.270;27.942;2023-05-09T07:05:22;98769.06;;;20.11;53.77
32456;BME280;18912;43.270;27.942;2023-05-09T07:07:48;98766.31;;;20.11;53.15
32456;BME280;18912;43.270;27.942;2023-05-09T07:10:13;98772.06;;;19.93;52.45
32456;BME280;18912;43.270;27.942;2023-05-09T07:12:39;98768.25;;;19.78;52.77
32456;BME280;18912;43.270;27.942;2023-05-09T07:15:04;98760.78;;;19.56;53.36
32456;BME280;18912;43.270;27.942;2023-05-09T07:17:30;98766.28;;;19.73;52.01
32456;BME280;18912;43.270;27.942;2023-05-09T07:19:55;98765.78;;;19.60;52.76
32456;BME280;18912;43.270;27.942;2023-05-09T07:22:21;98770.75;;;19.46;52.83
32456;BME280;18912;43.270;27.942;2023-05-09T07:24:46;98771.47;;;18.97;54.34
32456;BME280;18912;43.270;27.942;2023-05-09T07:27:11;98772.09;;;18.87;54.48
32456;BME280;18912;43.270;27.942;2023-05-09T07:29:37;98760.66;;;18.39;55.61
32456;BME280;18912;43.270;27.942;2023-05-09T07:32:02;98770.75;;;18.10;56.31
32456;BME280;18912;43.270;27.942;2023-05-09T07:34:27;98776.06;;;18.28;56.22
32456;BME280;18912;43.270;27.942;2023-05-09T07:36:53;98775.03;;;18.06;56.57
32456;BME280;18912;43.270;27.942;2023-05-09T07:39:18;98769.75;;;18.16;56.77
32456;BME280;18912;43.270;27.942;2023-05-09T07:41:43;98763.66;;;18.26;56.18
32456;BME280;18912;43.270;27.942;2023-05-09T07:44:09;98783.91;;;18.25;56.46
32456;BME280;18912;43.270;27.942;2023-05-09T07:46:34;98766.16;;;18.50;55.52
32456;BME280;18912;43.270;27.942;2023-05-09T07:49:01;98759.34;;;18.64;54.75
32456;BME280;18912;43.270;27.942;2023-05-09T07:51:27;98766.97;;;18.91;54.92
32456;BME280;18912;43.270;27.942;2023-05-09T07:53:52;98762.94;;;19.10;54.88
32456;BME280;18912;43.270;27.942;2023-05-09T07:56:20;98765.66;;;18.65;55.33
32456;BME280;18912;43.270;27.942;2023-05-09T07:58:46;98768.94;;;18.79;55.63
32456;BME280;18912;43.270;27.942;2023-05-09T08:01:12;98768.34;;;19.05;54.41
32456;BME280;18912;43.270;27.942;2023-05-09T08:03:37;98772.72;;;19.34;53.77
32456;BME280;18912;43.270;27.942;2023-05-09T08:06:02;98774.00;;;19.76;53.04
32456;BME280;18912;43.270;27.942;2023-05-09T08:08:28;98773.00;;;19.66;53.48
32456;BME280;18912;43.270;27.942;2023-05-09T08:10:53;98770.69;;;19.41;52.88
32456;BME280;18912;43.270;27.942;2023-05-09T08:13:19;98773.50;;;19.79;53.17
32456;BME280;18912;43.270;27.942;2023-05-09T08:15:46;98776.56;;;19.33;52.99
32456;BME280;18912;43.270;27.942;2023-05-09T08:18:11;98780.06;;;19.45;52.88
32456;BME280;18912;43.270;27.942;2023-05-09T08:20:36;98776.06;;;19.36;52.03
32456;BME280;18912;43.270;27.942;2023-05-09T08:23:02;98769.69;;;19.19;53.85
32456;BME280;18912;43.270;27.942;2023-05-09T08:25:27;98768.03;;;19.18;52.87
32456;BME280;18912;43.270;27.942;2023-05-09T08:27:53;98762.28;;;19.19;53.63
32456;BME280;18912;43.270;27.942;2023-05-09T08:30:18;98760.28;;;19.43;52.95
32456;BME280;18912;43.270;27.942;2023-05-09T08:32:44;98760.97;;;19.50;52.36
32456;BME280;18912;43.270;27.942;2023-05-09T08:35:09;98761.78;;;19.50;52.33
32456;BME280;18912;43.270;27.942;2023-05-09T08:37:35;98768.59;;;19.98;51.47
32456;BME280;18912;43.270;27.942;2023-05-09T08:40:02;98768.09;;;19.84;52.19
32456;BME280;18912;43.270;27.942;2023-05-09T08:42:28;98762.38;;;19.52;52.81
32456;BME280;18912;43.270;27.942;2023-05-09T08:44:54;98771.44;;;19.70;52.82
32456;BME280;18912;43.270;27.942;2023-05-09T08:47:20;98767.44;;;19.77;52.51
32456;BME280;18912;43.270;27.942;2023-05-09T08:49:46;98775.00;;;20.41;51.21
32456;BME280;18912;43.270;27.942;2023-05-09T08:52:12;98766.75;;;20.41;51.26
32456;BME280;18912;43.270;27.942;2023-05-09T08:54:38;98770.66;;;20.45;49.32
32456;BME280;18912;43.270;27.942;2023-05-09T08:57:03;98769.06;;;20.11;49.33
32456;BME280;18912;43.270;27.942;2023-05-09T08:59:28;98768.69;;;20.63;49.28
32456;BME280;18912;43.270;27.942;2023-05-09T09:01:55;98760.84;;;20.50;47.45
32456;BME280;18912;43.270;27.942;2023-05-09T09:04:21;98757.44;;;20.64;47.26
32456;BME280;18912;43.270;27.942;2023-05-09T09:06:46;98761.63;;;20.93;48.05
32456;BME280;18912;43.270;27.942;2023-05-09T09:09:12;98754.97;;;20.63;48.75
32456;BME280;18912;43.270;27.942;2023-05-09T09:11:37;98754.81;;;21.22;48.37
32456;BME280;18912;43.270;27.942;2023-05-09T09:14:10;98756.56;;;20.59;48.56
32456;BME280;18912;43.270;27.942;2023-05-09T09:16:36;98756.72;;;20.74;48.63
32456;BME280;18912;43.270;27.942;2023-05-09T09:19:02;98748.63;;;20.62;48.96
32456;BME280;18912;43.270;27.942;2023-05-09T09:21:28;98737.44;;;20.25;48.37
32456;BME280;18912;43.270;27.942;2023-05-09T09:23:56;98741.28;;;20.68;49.45
32456;BME280;18912;43.270;27.942;2023-05-09T09:26:21;98741.13;;;20.79;49.28
32456;BME280;18912;43.270;27.942;2023-05-09T09:28:47;98746.13;;;20.61;50.35
32456;BME280;18912;43.270;27.942;2023-05-09T09:31:21;98745.88;;;20.62;49.92
32456;BME280;18912;43.270;27.942;2023-05-09T09:33:47;98755.72;;;20.80;49.82
32456;BME280;18912;43.270;27.942;2023-05-09T09:36:12;98743.97;;;20.63;49.45
32456;BME280;18912;43.270;27.942;2023-05-09T09:38:41;98738.88;;;20.50;49.07
32456;BME280;18912;43.270;27.942;2023-05-09T09:41:11;98743.88;;;20.79;48.30
32456;BME280;18912;43.270;27.942;2023-05-09T09:43:36;98736.34;;;20.91;48.67
32456;BME280;18912;43.270;27.942;2023-05-09T09:46:02;98751.44;;;20.94;48.38
32456;BME280;18912;43.270;27.942;2023-05-09T09:48:32;98754.75;;;20.09;50.46
32456;BME280;18912;43.270;27.942;2023-05-09T09:51:02;98753.53;;;18.89;54.27
32456;BME280;18912;43.270;27.942;2023-05-09T09:53:27;98758.31;;;18.82;54.50
32456;BME280;18912;43.270;27.942;2023-05-09T09:55:56;98762.28;;;18.75;54.79
32456;BME280;18912;43.270;27.942;2023-05-09T09:58:21;98767.00;;;18.16;55.80
32456;BME280;18912;43.270;27.942;2023-05-09T10:01:02;98773.06;;;18.53;55.09
32456;BME280;18912;43.270;27.942;2023-05-09T10:03:33;98771.75;;;18.32;53.58
32456;BME280;18912;43.270;27.942;2023-05-09T10:06:02;98774.94;;;18.52;53.42
32456;BME280;18912;43.270;27.942;2023-05-09T10:08:27;98769.63;;;18.86;53.65
32456;BME280;18912;43.270;27.942;2023-05-09T10:10:52;98770.53;;;19.19;53.33
32456;BME280;18912;43.270;27.942;2023-05-09T10:13:18;98765.59;;;19.33;53.37
32456;BME280;18912;43.270;27.942;2023-05-09T10:15:44;98763.44;;;19.35;53.06
32456;BME280;18912;43.270;27.942;2023-05-09T10:18:10;98766.19;;;19.68;51.03
32456;BME280;18912;43.270;27.942;2023-05-09T10:20:38;98764.13;;;19.75;50.53
32456;BME280;18912;43.270;27.942;2023-05-09T10:23:05;98776.56;;;19.99;50.71
32456;BME280;18912;43.270;27.942;2023-05-09T10:26:04;98767.94;;;19.74;50.76
32456;BME280;18912;43.270;27.942;2023-05-09T10:28:22;98765.75;;;19.93;50.67
32456;BME280;18912;43.270;27.942;2023-05-09T10:30:58;98769.00;;;20.44;49.39
32456;BME280;18912;43.270;27.942;2023-05-09T10:33:25;98778.66;;;20.47;49.15
32456;BME280;18912;43.270;27.942;2023-05-09T10:35:55;98774.75;;;19.88;50.39
32456;BME280;18912;43.270;27.942;2023-05-09T10:38:22;98764.75;;;19.49;50.59
32456;BME280;18912;43.270;27.942;2023-05-09T10:40:48;98769.16;;;20.00;49.98
32456;BME280;18912;43.270;27.942;2023-05-09T10:43:14;98761.13;;;19.60;50.85
32456;BME280;18912;43.270;27.942;2023-05-09T10:45:40;98762.47;;;20.12;50.23
32456;BME280;18912;43.270;27.942;2023-05-09T10:48:06;98767.13;;;20.12;49.94
32456;BME280;18912;43.270;27.942;2023-05-09T10:50:33;98768.84;;;19.96;49.34
32456;BME280;18912;43.270;27.942;2023-05-09T10:53:03;98761.31;;;20.25;49.26
32456;BME280;18912;43.270;27.942;2023-05-09T10:55:53;98757.03;;;19.96;51.76
32456;BME280;18912;43.270;27.942;2023-05-09T11:00:48;98755.63;;;20.75;48.75
32456;BME280;18912;43.270;27.942;2023-05-09T11:03:13;98753.78;;;21.02;48.58
32456;BME280;18912;43.270;27.942;2023-05-09T11:05:39;98756.56;;;21.33;47.75
32456;BME280;18912;43.270;27.942;2023-05-09T11:08:16;98745.88;;;21.37;47.47
32456;BME280;18912;43.270;27.942;2023-05-09T11:10:42;98753.56;;;21.35;46.95
32456;BME280;18912;43.270;27.942;2023-05-09T11:13:07;98758.03;;;21.14;47.12
32456;BME280;18912;43.270;27.942;2023-05-09T11:15:33;98761.59;;;21.15;46.81
32456;BME280;18912;43.270;27.942;2023-05-09T11:18:05;98756.81;;;20.57;47.46
32456;BME280;18912;43.270;27.942;2023-05-09T11:20:32;98770.38;;;20.25;48.37
32456;BME280;18912;43.270;27.942;2023-05-09T11:22:58;98771.91;;;19.83;48.99
32456;BME280;18912;43.270;27.942;2023-05-09T11:25:24;98766.47;;;19.22;53.58
32456;BME280;18912;43.270;27.942;2023-05-09T11:27:56;98780.22;;;18.42;57.07
32456;BME280;18912;43.270;27.942;2023-05-09T11:30:22;98784.63;;;17.97;58.28
32456;BME280;18912;43.270;27.942;2023-05-09T11:32:51;98782.88;;;17.80;59.45
32456;BME280;18912;43.270;27.942;2023-05-09T11:35:18;98788.00;;;17.35;60.86
32456;BME280;18912;43.270;27.942;2023-05-09T11:40:17;98789.97;;;17.69;60.58
32456;BME280;18912;43.270;27.942;2023-05-09T11:42:43;98787.16;;;17.23;62.99
32456;BME280;18912;43.270;27.942;2023-05-09T11:45:09;98775.34;;;17.11;63.66
32456;BME280;18912;43.270;27.942;2023-05-09T11:47:35;98782.03;;;17.26;64.52
32456;BME280;18912;43.270;27.942;2023-05-09T11:50:01;98778.63;;;17.01;65.36
32456;BME280;18912;43.270;27.942;2023-05-09T11:52:30;98777.94;;;17.47;63.82
32456;BME280;18912;43.270;27.942;2023-05-09T11:54:56;98779.66;;;17.94;62.10
32456;BME280;18912;43.270;27.942;2023-05-09T11:57:22;98778.81;;;18.80;59.01
32456;BME280;18912;43.270;27.942;2023-05-09T11:59:47;98778.00;;;18.67;58.89
32456;BME280;18912;43.270;27.942;2023-05-09T12:02:12;98777.63;;;18.01;60.96
32456;BME280;18912;43.270;27.942;2023-05-09T12:04:38;98775.44;;;18.49;59.08
32456;BME280;18912;43.270;27.942;2023-05-09T12:07:04;98773.41;;;18.33;58.38
32456;BME280;18912;43.270;27.942;2023-05-09T12:09:29;98774.00;;;18.35;59.60
32456;BME280;18912;43.270;27.942;2023-05-09T12:11:58;98771.53;;;18.34;58.77
32456;BME280;18912;43.270;27.942;2023-05-09T12:14:30;98760.47;;;17.48;61.98
32456;BME280;18912;43.270;27.942;2023-05-09T12:16:56;98773.88;;;17.38;61.15
32456;BME280;18912;43.270;27.942;2023-05-09T12:19:22;98765.94;;;17.48;62.17
32456;BME280;18912;43.270;27.942;2023-05-09T12:21:48;98765.84;;;17.25;63.59
32456;BME280;18912;43.270;27.942;2023-05-09T12:24:18;98763.22;;;17.07;63.49
32456;BME280;18912;43.270;27.942;2023-05-09T12:26:43;98767.41;;;16.43;66.75
32456;BME280;18912;43.270;27.942;2023-05-09T12:29:09;98759.34;;;16.85;64.84
32456;BME280;18912;43.270;27.942;2023-05-09T12:31:35;98757.72;;;16.29;67.53
32456;BME280;18912;43.270;27.942;2023-05-09T12:34:01;98754.69;;;16.85;65.43
32456;BME280;18912;43.270;27.942;2023-05-09T12:36:26;98758.50;;;16.84;65.41
32456;BME280;18912;43.270;27.942;2023-05-09T12:38:52;98754.69;;;17.15;63.13
32456;BME280;18912;43.270;27.942;2023-05-09T12:41:18;98746.81;;;17.59;61.73
32456;BME280;18912;43.270;27.942;2023-05-09T12:43:46;98747.41;;;18.19;59.19
32456;BME280;18912;43.270;27.942;2023-05-09T12:46:12;98754.25;;;18.45;57.29
32456;BME280;18912;43.270;27.942;2023-05-09T12:48:42;98756.81;;;18.75;56.33
32456;BME280;18912;43.270;27.942;2023-05-09T12:51:08;98752.88;;;18.99;56.18
32456;BME280;18912;43.270;27.942;2023-05-09T12:53:39;98752.66;;;19.17;55.38
32456;BME280;18912;43.270;27.942;2023-05-09T12:56:12;98748.00;;;19.17;54.95
32456;BME280;18912;43.270;27.942;2023-05-09T12:58:39;98755.94;;;18.46;53.94
32456;BME280;18912;43.270;27.942;2023-05-09T13:01:04;98764.28;;;18.16;55.36
32456;BME280;18912;43.270;27.942;2023-05-09T13:03:30;98761.78;;;18.03;55.86